Time;durP1;ratioP1;P1;durP2;ratioP2;P2;SDS_P1;SDS_P2;PMS_P1;PMS_P2;Temp;Humidity;BMP_temperature;BMP_pressure;BME280_temperature;BME280_humidity;BME280_pressure;Samples;Min_cycle;Max_cycle;Signal;HPM_P1;HPM_P2
2022/08/06 00:02:00;;;;;;;4.30;2.20;;;22.70;1.00;;;;;;5084645;28;20445;-73
2022/08/06 00:04:25;;;;;;;4.97;2.47;;;22.70;1.00;;;;;;5087891;28;20954;-73
2022/08/06 00:06:51;;;;;;;3.53;2.17;;;22.60;1.00;;;;;;5090280;28;20241;-73
2022/08/06 00:09:17;;;;;;;4.40;1.70;;;22.60;1.00;;;;;;5089733;28;20182;-73
2022/08/06 00:11:42;;;;;;;6.87;2.33;;;22.70;1.00;;;;;;5084339;28;20184;-73
2022/08/06 00:14:08;;;;;;;4.90;2.17;;;22.60;1.00;;;;;;5092083;28;20186;-73
2022/08/06 00:16:34;;;;;;;3.63;2.10;;;22.60;1.00;;;;;;5091443;28;20187;-73
2022/08/06 00:18:59;;;;;;;6.73;2.43;;;22.60;1.00;;;;;;5087903;28;20171;-73
2022/08/06 00:21:25;;;;;;;3.43;2.33;;;22.60;1.00;;;;;;5087492;28;20207;-73
2022/08/06 00:23:50;;;;;;;3.13;2.00;;;22.40;1.00;;;;;;5090332;28;20249;-73
2022/08/06 00:26:16;;;;;;;3.40;2.20;;;22.40;1.00;;;;;;5088879;28;20200;-73
2022/08/06 00:28:42;;;;;;;4.50;2.63;;;22.30;1.00;;;;;;5091057;28;20252;-73
2022/08/06 00:31:07;;;;;;;5.00;2.10;;;22.30;1.00;;;;;;5089936;28;20199;-74
2022/08/06 00:33:33;;;;;;;4.73;2.30;;;22.20;1.00;;;;;;5086455;28;20581;-73
2022/08/06 00:35:59;;;;;;;4.13;2.40;;;22.20;1.00;;;;;;5092025;28;20225;-73
2022/08/06 00:38:25;;;;;;;4.10;2.30;;;22.10;1.00;;;;;;5077944;28;20465;-74
2022/08/06 00:40:50;;;;;;;3.60;2.23;;;22.20;1.00;;;;;;5081412;28;20167;-73
2022/08/06 00:43:16;;;;;;;4.10;2.10;;;22.10;1.00;;;;;;5085386;28;20179;-73
2022/08/06 00:45:42;;;;;;;6.67;2.57;;;22.10;1.00;;;;;;5090844;28;20175;-73
2022/08/06 00:48:08;;;;;;;5.20;2.40;;;22.00;1.00;;;;;;5086144;28;20738;-73
2022/08/06 00:50:34;;;;;;;3.60;2.50;;;22.00;1.00;;;;;;5087621;28;20187;-73
2022/08/06 00:53:00;;;;;;;4.37;2.60;;;22.00;1.00;;;;;;5077714;28;20221;-73
2022/08/06 00:55:26;;;;;;;2.93;2.40;;;22.00;1.00;;;;;;5082547;28;20976;-73
2022/08/06 00:57:51;;;;;;;5.30;2.50;;;21.90;1.00;;;;;;5084810;28;20181;-73
2022/08/06 01:00:17;;;;;;;5.03;2.50;;;21.90;1.00;;;;;;5086572;28;20587;-73
2022/08/06 01:02:42;;;;;;;4.10;2.20;;;21.90;1.00;;;;;;5091280;28;20794;-73
2022/08/06 01:05:08;;;;;;;5.50;2.60;;;21.80;1.00;;;;;;5094224;28;20204;-73
2022/08/06 01:07:34;;;;;;;3.83;2.40;;;21.70;1.00;;;;;;5091913;28;20179;-73
2022/08/06 01:09:59;;;;;;;4.23;2.43;;;21.60;1.00;;;;;;5082962;28;20558;-73
2022/08/06 01:12:28;;;;;;;4.83;2.83;;;21.60;1.00;;;;;;5084279;28;20223;-73
2022/08/06 01:14:53;;;;;;;4.40;2.53;;;21.60;1.00;;;;;;5086974;28;20200;-73
2022/08/06 01:17:48;;;;;;;5.10;2.70;;;21.60;1.00;;;;;;5083970;28;20965;-73
2022/08/06 01:20:54;;;;;;;5.27;2.90;;;21.60;1.00;;;;;;5084618;28;20258;-73
2022/08/06 01:23:30;;;;;;;4.70;2.57;;;21.50;1.00;;;;;;5082470;28;20958;-73
2022/08/06 01:26:28;;;;;;;4.03;2.43;;;21.50;1.00;;;;;;5087078;28;20481;-73
2022/08/06 01:29:01;;;;;;;3.63;2.57;;;21.40;1.00;;;;;;5089188;28;20453;-73
2022/08/06 01:31:34;;;;;;;5.17;2.47;;;21.40;1.00;;;;;;5082520;28;20828;-73
2022/08/06 01:34:07;;;;;;;3.70;2.50;;;21.30;1.00;;;;;;5090595;28;20466;-73
2022/08/06 01:36:51;;;;;;;3.07;2.47;;;21.20;1.00;;;;;;5086729;28;21036;-73
2022/08/06 01:39:19;;;;;;;4.40;2.37;;;21.10;1.00;;;;;;5073769;28;20435;-73
2022/08/06 01:41:48;;;;;;;4.40;2.73;;;22.50;1.00;;;;;;5074666;28;20495;-73
2022/08/06 01:44:20;;;;;;;7.20;2.87;;;20.90;1.00;;;;;;5088685;28;20803;-73
2022/08/06 01:46:52;;;;;;;5.83;3.37;;;20.90;1.00;;;;;;5090384;28;20903;-72
2022/08/06 01:49:24;;;;;;;5.60;3.17;;;20.80;1.00;;;;;;5086322;28;20931;-73
2022/08/06 01:51:51;;;;;;;5.23;3.10;;;20.70;1.00;;;;;;5090015;28;20425;-73
2022/08/06 01:54:19;;;;;;;4.40;2.77;;;20.60;1.00;;;;;;5087103;28;20429;-73
2022/08/06 01:56:48;;;;;;;6.27;3.43;;;20.60;1.00;;;;;;5083331;28;20435;-72
2022/08/06 01:59:16;;;;;;;5.13;3.03;;;20.50;1.00;;;;;;5086788;28;20940;-73
2022/08/06 02:01:46;;;;;;;7.20;3.20;;;20.50;1.00;;;;;;5090906;28;20433;-73
2022/08/06 02:04:14;;;;;;;6.77;3.00;;;20.40;1.00;;;;;;5085593;28;20430;-73
2022/08/06 02:06:43;;;;;;;7.20;3.60;;;20.40;1.00;;;;;;5089440;28;20410;-73
2022/08/06 02:09:13;;;;;;;6.67;3.30;;;20.30;1.00;;;;;;5084574;28;20811;-72
2022/08/06 02:11:40;;;;;;;6.53;3.33;;;20.30;1.00;;;;;;5086387;28;20990;-73
2022/08/06 02:14:07;;;;;;;5.30;3.47;;;20.30;1.00;;;;;;5085351;28;20532;-73
2022/08/06 02:16:39;;;;;;;4.97;3.50;;;21.40;1.00;;;;;;5089111;28;20456;-73
2022/08/06 02:19:07;;;;;;;5.93;3.37;;;20.20;1.00;;;;;;5081618;28;20433;-73
2022/08/06 02:21:35;;;;;;;4.63;3.40;;;20.10;1.00;;;;;;5089110;28;20441;-73
2022/08/06 02:24:05;;;;;;;5.33;3.23;;;20.10;1.00;;;;;;5087517;28;20780;-73
2022/08/06 02:26:32;;;;;;;6.20;3.10;;;20.00;1.00;;;;;;5087814;28;20425;-73
2022/08/06 02:28:59;;;;;;;7.67;3.20;;;20.00;1.00;;;;;;5086587;28;20434;-73
2022/08/06 02:31:25;;;;;;;6.53;3.37;;;19.90;1.00;;;;;;5089003;28;20962;-73
2022/08/06 02:33:51;;;;;;;4.90;3.50;;;19.90;1.00;;;;;;5090115;28;20433;-73
2022/08/06 02:36:25;;;;;;;4.87;3.47;;;19.90;1.00;;;;;;5079287;28;20215;-73
2022/08/06 02:39:13;;;;;;;4.80;3.30;;;20.00;1.00;;;;;;5078048;28;20181;-72
2022/08/06 02:41:49;;;;;;;7.13;3.43;;;19.80;1.00;;;;;;5087776;28;20473;-73
2022/08/06 02:44:21;;;;;;;6.70;3.60;;;19.70;1.00;;;;;;5083987;28;20418;-72
2022/08/06 02:46:55;;;;;;;5.37;3.43;;;19.60;1.00;;;;;;5089635;28;20446;-72
2022/08/06 02:49:24;;;;;;;7.93;3.43;;;19.50;1.00;;;;;;5080517;28;20429;-72
2022/08/06 02:52:26;;;;;;;7.17;3.47;;;19.50;1.00;;;;;;5088541;28;20433;-73
2022/08/06 02:55:02;;;;;;;5.37;4.17;;;19.50;1.00;;;;;;5087923;28;20819;-73
2022/08/06 02:57:39;;;;;;;5.53;3.50;;;19.40;1.00;;;;;;5082651;28;20433;-73
2022/08/06 03:00:07;;;;;;;5.37;3.63;;;19.30;1.00;;;;;;5081629;28;20416;-73
2022/08/06 03:02:36;;;;;;;8.50;4.00;;;19.40;1.00;;;;;;5085992;28;20499;-72
2022/08/06 03:05:06;;;;;;;4.00;3.30;;;19.30;1.00;;;;;;5076644;28;20402;-73
2022/08/06 03:07:33;;;;;;;5.43;3.60;;;19.30;1.00;;;;;;5081550;28;20967;-72
2022/08/06 03:10:00;;;;;;;5.60;3.40;;;19.20;1.00;;;;;;5085288;28;20499;-73
2022/08/06 03:12:27;;;;;;;5.73;3.60;;;19.20;1.00;;;;;;5088034;28;20448;-73
2022/08/06 03:14:54;;;;;;;4.93;3.40;;;19.10;1.00;;;;;;5084563;28;20791;-73
2022/08/06 03:17:22;;;;;;;6.20;3.87;;;19.90;1.00;;;;;;5083566;28;20425;-73
2022/08/06 03:19:49;;;;;;;6.73;3.80;;;19.10;1.00;;;;;;5085280;28;21029;-72
2022/08/06 03:22:17;;;;;;;10.07;5.00;;;19.00;1.00;;;;;;5088124;28;20434;-73
2022/08/06 03:24:45;;;;;;;7.60;3.83;;;19.00;1.00;;;;;;5081165;28;20427;-74
2022/08/06 03:27:11;;;;;;;6.00;3.83;;;18.90;1.00;;;;;;5088751;28;20425;-72
2022/08/06 03:29:38;;;;;;;8.13;3.80;;;18.90;1.00;;;;;;5086972;28;20545;-72
2022/08/06 03:32:06;;;;;;;5.00;3.67;;;18.90;1.00;;;;;;5091558;28;21068;-72
2022/08/06 03:34:33;;;;;;;5.87;3.80;;;18.80;1.00;;;;;;5098694;28;20524;-73
2022/08/06 03:37:00;;;;;;;5.40;3.90;;;18.80;1.00;;;;;;5085446;28;20412;-72
2022/08/06 03:39:28;;;;;;;5.60;3.77;;;18.70;1.00;;;;;;5084488;28;20784;-73
2022/08/06 03:41:55;;;;;;;5.17;3.97;;;18.70;1.00;;;;;;5088357;28;20730;-73
2022/08/06 03:44:21;;;;;;;5.37;3.57;;;18.70;1.00;;;;;;5078521;28;20513;-73
2022/08/06 03:46:53;;;;;;;6.00;3.53;;;18.60;1.00;;;;;;5067612;28;20494;-73
2022/08/06 03:49:27;;;;;;;6.80;3.70;;;18.60;1.00;;;;;;5069018;28;20651;-73
2022/08/06 03:51:54;;;;;;;4.30;3.83;;;18.60;1.00;;;;;;5087537;28;20429;-73
2022/08/06 03:54:28;;;;;;;5.77;3.70;;;18.60;1.00;;;;;;5085829;28;20457;-73
2022/08/06 03:56:59;;;;;;;4.23;3.40;;;18.50;1.00;;;;;;5088688;28;20414;-73
2022/08/06 03:59:26;;;;;;;5.13;3.73;;;18.50;1.00;;;;;;5086540;28;20788;-73
2022/08/06 04:01:56;;;;;;;5.60;3.70;;;18.40;1.00;;;;;;5088850;28;20936;-72
2022/08/06 04:04:23;;;;;;;5.77;3.90;;;18.40;1.00;;;;;;5083247;28;20847;-72
2022/08/06 04:06:49;;;;;;;6.07;3.57;;;18.40;1.00;;;;;;5089050;28;20394;-73
2022/08/06 04:09:16;;;;;;;5.90;3.80;;;18.30;1.00;;;;;;5082156;28;20465;-73
2022/08/06 04:11:43;;;;;;;5.53;3.77;;;18.20;1.00;;;;;;5089480;28;20559;-73
2022/08/06 04:14:09;;;;;;;8.70;4.03;;;18.20;1.00;;;;;;5090292;28;20951;-73
2022/08/06 04:16:36;;;;;;;6.07;4.17;;;18.30;1.00;;;;;;5092556;28;20468;-72
2022/08/06 04:19:04;;;;;;;11.23;4.40;;;18.20;1.00;;;;;;5082817;28;20432;-73
2022/08/06 04:21:29;;;;;;;5.40;3.40;;;18.30;1.00;;;;;;5091884;28;20867;-72
2022/08/06 04:23:55;;;;;;;5.20;3.77;;;18.20;1.00;;;;;;5087642;28;20426;-73
2022/08/06 04:26:23;;;;;;;4.80;3.67;;;18.20;1.00;;;;;;5089990;28;20654;-73
2022/08/06 04:28:53;;;;;;;5.70;3.87;;;18.30;1.00;;;;;;5088408;28;20174;-72
2022/08/06 04:31:20;;;;;;;7.50;3.40;;;18.30;1.00;;;;;;5090418;28;20448;-72
2022/08/06 04:33:47;;;;;;;5.43;3.70;;;18.30;1.00;;;;;;5092415;28;20537;-72
2022/08/06 04:36:14;;;;;;;7.27;3.87;;;18.30;1.00;;;;;;5092350;28;20453;-72
2022/08/06 04:38:40;;;;;;;6.03;3.70;;;18.30;1.00;;;;;;5088179;28;20432;-72
2022/08/06 04:41:07;;;;;;;7.20;3.70;;;18.30;1.00;;;;;;5089591;28;20471;-72
2022/08/06 04:43:32;;;;;;;12.13;3.30;;;18.30;1.00;;;;;;5085434;28;20983;-73
2022/08/06 04:45:59;;;;;;;3.40;3.07;;;18.30;1.00;;;;;;5092388;28;20437;-72
2022/08/06 04:48:26;;;;;;;4.30;3.27;;;18.30;1.00;;;;;;5086819;28;20171;-73
2022/08/06 04:50:52;;;;;;;3.63;3.17;;;18.30;1.00;;;;;;5089114;28;20958;-73
2022/08/06 04:53:19;;;;;;;7.23;3.37;;;18.30;1.00;;;;;;5085865;28;20457;-72
2022/08/06 04:55:46;;;;;;;5.50;3.40;;;18.30;1.00;;;;;;5088977;28;20482;-73
2022/08/06 04:58:14;;;;;;;6.03;3.40;;;18.30;1.00;;;;;;5089415;28;20457;-73
2022/08/06 05:00:42;;;;;;;4.27;2.97;;;18.40;1.00;;;;;;5088711;28;20988;-73
2022/08/06 05:03:08;;;;;;;5.80;3.53;;;18.40;1.00;;;;;;5092814;28;20453;-73
2022/08/06 05:05:38;;;;;;;6.33;3.17;;;18.40;1.00;;;;;;5088211;28;20429;-73
2022/08/06 05:08:07;;;;;;;6.33;3.37;;;18.50;1.00;;;;;;5087372;28;20221;-73
2022/08/06 05:10:42;;;;;;;5.47;3.40;;;18.50;1.00;;;;;;5089972;28;20469;-72
2022/08/06 05:13:11;;;;;;;3.67;2.97;;;18.50;1.00;;;;;;5081395;28;20569;-72
2022/08/06 05:15:41;;;;;;;6.97;3.10;;;18.50;1.00;;;;;;5080020;28;20725;-73
2022/08/06 05:18:13;;;;;;;4.20;3.40;;;18.50;1.00;;;;;;5084016;28;20436;-72
2022/08/06 05:20:41;;;;;;;8.60;3.60;;;18.50;1.00;;;;;;5088082;28;20422;-73
2022/08/06 05:23:29;;;;;;;9.10;3.43;;;18.50;1.00;;;;;;5083193;28;20526;-72
2022/08/06 05:25:54;;;;;;;6.20;3.30;;;18.50;1.00;;;;;;5089338;28;20425;-73
2022/08/06 05:28:20;;;;;;;4.93;3.00;;;18.50;1.00;;;;;;5082994;28;20460;-72
2022/08/06 05:30:48;;;;;;;5.13;3.17;;;18.50;1.00;;;;;;5091249;28;20707;-73
2022/08/06 05:33:30;;;;;;;6.43;3.47;;;18.50;1.00;;;;;;5084916;28;20224;-73
2022/08/06 05:35:58;;;;;;;6.93;3.40;;;18.60;1.00;;;;;;5084230;28;20800;-72
2022/08/06 05:38:26;;;;;;;4.40;3.03;;;18.60;1.00;;;;;;5074226;28;20461;-72
2022/08/06 05:40:53;;;;;;;5.43;3.27;;;18.60;1.00;;;;;;5080672;28;20430;-73
2022/08/06 05:43:19;;;;;;;8.20;3.43;;;18.60;1.00;;;;;;5087441;28;20515;-73
2022/08/06 05:45:46;;;;;;;6.77;3.17;;;18.70;1.00;;;;;;5089164;28;20421;-73
2022/08/06 05:48:14;;;;;;;4.27;2.87;;;18.80;1.00;;;;;;5083687;28;20259;-72
2022/08/06 05:50:46;;;;;;;5.97;3.80;;;18.80;1.00;;;;;;5088571;28;20434;-72
2022/08/06 05:53:17;;;;;;;7.87;3.63;;;19.00;1.00;;;;;;5090089;28;20414;-73
2022/08/06 05:56:01;;;;;;;6.57;3.40;;;18.90;1.00;;;;;;5083935;28;20936;-72
2022/08/06 05:58:51;;;;;;;3.80;3.40;;;18.90;1.00;;;;;;5088965;28;20492;-72
2022/08/06 06:01:17;;;;;;;5.73;3.30;;;18.90;1.00;;;;;;5085344;28;20495;-72
2022/08/06 06:03:44;;;;;;;5.83;3.33;;;18.90;1.00;;;;;;5096474;28;20416;-72
2022/08/06 06:06:11;;;;;;;6.53;3.33;;;18.90;1.00;;;;;;5083988;28;20838;-72
2022/08/06 06:08:37;;;;;;;5.73;3.30;;;19.00;1.00;;;;;;5088309;28;20447;-72
2022/08/06 06:11:04;;;;;;;5.30;3.00;;;19.10;1.00;;;;;;5087106;28;20449;-72
2022/08/06 06:13:31;;;;;;;3.93;3.03;;;19.20;1.00;;;;;;5087825;28;20862;-72
2022/08/06 06:16:09;;;;;;;4.40;3.13;;;19.30;1.00;;;;;;5089293;28;20871;-73
2022/08/06 06:18:36;;;;;;;7.33;3.17;;;19.30;1.00;;;;;;5085130;28;20555;-73
2022/08/06 06:21:10;;;;;;;7.10;3.40;;;19.40;1.00;;;;;;5072547;28;20491;-72
2022/08/06 06:24:01;;;;;;;7.10;2.80;;;19.60;1.00;;;;;;5086135;28;20389;-72
2022/08/06 06:26:39;;;;;;;4.37;3.17;;;19.70;1.00;;;;;;5085380;28;20824;-72
2022/08/06 06:29:08;;;;;;;5.80;2.90;;;19.80;1.00;;;;;;5080364;28;20434;-72
2022/08/06 06:31:57;;;;;;;7.53;2.93;;;19.90;1.00;;;;;;5089287;28;20429;-73
2022/08/06 06:34:46;;;;;;;5.50;3.00;;;19.90;1.00;;;;;;5079872;28;20441;-72
2022/08/06 06:37:29;;;;;;;6.83;3.00;;;20.00;1.00;;;;;;5083160;28;20496;-72
2022/08/06 06:40:34;;;;;;;5.67;2.90;;;20.10;1.00;;;;;;5083601;28;20448;-72
2022/08/06 06:43:18;;;;;;;5.17;2.77;;;20.30;1.00;;;;;;5087945;28;20425;-72
2022/08/06 06:46:09;;;;;;;4.90;3.13;;;20.40;1.00;;;;;;5087558;28;20455;-72
2022/08/06 06:48:54;;;;;;;5.57;2.80;;;20.60;1.00;;;;;;5084134;28;20438;-73
2022/08/06 06:51:40;;;;;;;4.07;2.33;;;20.70;1.00;;;;;;5082229;28;20796;-72
2022/08/06 06:54:10;;;;;;;3.20;2.20;;;20.90;1.00;;;;;;5084755;28;20432;-74
2022/08/06 06:56:41;;;;;;;5.33;2.40;;;21.10;1.00;;;;;;5081919;28;20681;-73
2022/08/06 06:59:18;;;;;;;4.13;2.13;;;21.30;1.00;;;;;;5088755;28;20871;-74
2022/08/06 07:01:48;;;;;;;4.50;2.20;;;21.50;1.00;;;;;;5087205;28;20967;-74
2022/08/06 07:04:16;;;;;;;3.27;2.50;;;21.70;1.00;;;;;;5099995;28;20409;-74
2022/08/06 07:06:46;;;;;;;4.37;2.50;;;21.70;1.00;;;;;;5096356;28;20482;-74
2022/08/06 07:09:18;;;;;;;4.40;2.40;;;21.70;1.00;;;;;;5076291;28;20429;-73
2022/08/06 07:11:45;;;;;;;3.30;2.50;;;21.80;1.00;;;;;;5085897;28;20448;-74
2022/08/06 07:14:12;;;;;;;5.73;2.37;;;22.10;1.00;;;;;;5084430;28;20532;-74
2022/08/06 07:16:39;;;;;;;3.77;2.10;;;22.50;1.00;;;;;;5079610;28;20449;-75
2022/08/06 07:19:06;;;;;;;3.80;2.53;;;22.60;1.00;;;;;;5077847;28;20432;-75
2022/08/06 07:21:33;;;;;;;3.90;2.20;;;22.70;1.00;;;;;;5084776;28;20448;-75
2022/08/06 07:23:59;;;;;;;4.17;2.00;;;22.90;1.00;;;;;;5087464;28;20425;-75
2022/08/06 07:26:27;;;;;;;3.47;1.70;;;23.10;1.00;;;;;;5085782;28;20494;-75
2022/08/06 07:28:54;;;;;;;3.40;1.83;;;23.30;1.00;;;;;;5076353;28;20507;-75
2022/08/06 07:31:24;;;;;;;3.80;1.60;;;23.60;1.00;;;;;;5083265;28;20456;-75
2022/08/06 07:33:51;;;;;;;2.73;1.63;;;23.80;1.00;;;;;;5083986;28;20441;-75
2022/08/06 07:36:19;;;;;;;6.63;2.23;;;24.00;1.00;;;;;;5086273;28;20498;-75
2022/08/06 07:38:46;;;;;;;5.80;2.03;;;24.20;1.00;;;;;;5082298;28;20464;-76
2022/08/06 07:41:13;;;;;;;5.00;2.90;;;24.40;1.00;;;;;;5088490;28;20456;-75
2022/08/06 07:43:51;;;;;;;3.20;1.80;;;24.60;1.00;;;;;;5086606;28;20946;-76
2022/08/06 07:46:20;;;;;;;4.33;1.70;;;24.80;1.00;;;;;;5083921;28;20491;-76
2022/08/06 07:48:49;;;;;;;4.87;1.60;;;25.00;1.00;;;;;;5080964;28;20548;-75
2022/08/06 07:51:17;;;;;;;2.80;1.90;;;25.00;1.00;;;;;;5091911;28;20448;-76
2022/08/06 07:53:44;;;;;;;3.10;1.80;;;25.10;1.00;;;;;;5089699;28;20480;-76
2022/08/06 07:56:11;;;;;;;3.23;1.80;;;25.10;1.00;;;;;;5088161;28;20568;-74
2022/08/06 07:58:37;;;;;;;4.40;1.90;;;25.20;1.00;;;;;;5085986;28;20433;-75
2022/08/06 08:01:03;;;;;;;3.33;1.90;;;25.40;1.00;;;;;;5089498;28;20709;-76
2022/08/06 08:06:18;;;;;;;3.13;1.70;;;25.70;1.00;;;;;;5092824;28;20462;-75
2022/08/06 08:08:45;;;;;;;3.67;1.80;;;25.80;1.00;;;;;;5087864;28;21017;-75
2022/08/06 08:11:13;;;;;;;3.13;2.00;;;26.00;1.00;;;;;;5090867;28;20441;-76
2022/08/06 08:13:38;;;;;;;4.23;2.10;;;26.20;1.00;;;;;;5088663;28;20437;-75
2022/08/06 08:16:06;;;;;;;3.10;1.73;;;26.40;1.00;;;;;;5092143;28;20460;-75
2022/08/06 08:18:32;;;;;;;4.10;1.70;;;26.40;1.00;;;;;;5087807;28;20183;-75
2022/08/06 08:21:02;;;;;;;2.60;1.57;;;26.50;1.00;;;;;;5088203;28;20427;-75
2022/08/06 08:23:32;;;;;;;6.33;1.80;;;26.60;1.00;;;;;;5086061;28;20171;-75
2022/08/06 08:26:00;;;;;;;4.00;1.70;;;26.90;1.00;;;;;;5089418;28;20811;-75
2022/08/06 08:28:26;;;;;;;5.07;1.63;;;27.10;1.00;;;;;;5091580;28;20416;-75
2022/08/06 08:30:51;;;;;;;2.87;1.50;;;27.20;1.00;;;;;;5080641;28;20443;-75
2022/08/06 08:33:19;;;;;;;4.30;1.90;;;27.60;1.00;;;;;;5084057;28;20588;-75
2022/08/06 08:35:46;;;;;;;5.93;1.80;;;28.40;1.00;;;;;;5094991;28;20275;-75
2022/08/06 08:38:11;;;;;;;3.33;1.80;;;29.40;1.00;;;;;;5089898;28;20174;-75
2022/08/06 08:40:38;;;;;;;6.93;1.60;;;30.40;1.00;;;;;;5077053;28;20168;-73
2022/08/06 08:43:07;;;;;;;2.83;1.63;;;31.40;1.00;;;;;;5070881;28;20283;-75
2022/08/06 08:45:34;;;;;;;2.35;1.40;;;32.70;1.00;;;;;;5074285;28;20286;-76
2022/08/06 08:48:01;;;;;;;3.05;1.70;;;33.60;1.00;;;;;;5075665;28;20172;-76
2022/08/06 08:50:30;;;;;;;3.92;1.42;;;34.30;1.00;;;;;;5070617;28;20164;-76
2022/08/06 08:53:06;;;;;;;3.10;1.50;;;34.80;1.00;;;;;;5068572;28;20610;-76
2022/08/06 08:55:32;;;;;;;3.63;1.30;;;35.00;1.00;;;;;;5075657;28;20257;-75
2022/08/06 08:57:58;;;;;;;3.22;1.50;;;35.70;1.00;;;;;;5088701;28;20630;-75
2022/08/06 09:00:24;;;;;;;3.35;1.50;;;36.10;1.00;;;;;;5091045;28;20171;-75
2022/08/06 09:02:50;;;;;;;2.30;1.35;;;36.20;1.00;;;;;;5098881;28;20231;-75
2022/08/06 09:05:16;;;;;;;2.60;1.40;;;36.30;1.00;;;;;;5104325;28;20170;-76
2022/08/06 09:07:42;;;;;;;7.78;1.60;;;36.00;1.00;;;;;;5089033;28;20187;-75
2022/08/06 09:10:09;;;;;;;2.92;1.35;;;36.40;1.00;;;;;;5088896;28;20182;-75
2022/08/06 09:12:35;;;;;;;3.10;1.38;;;37.00;1.00;;;;;;5089167;28;20199;-76
2022/08/06 09:15:01;;;;;;;3.78;1.33;;;37.70;1.00;;;;;;5078062;28;20400;-75
2022/08/06 09:17:29;;;;;;;4.00;1.67;;;37.50;1.00;;;;;;5084004;28;20714;-75
2022/08/06 09:19:55;;;;;;;2.40;1.48;;;37.60;1.00;;;;;;5080815;28;20649;-75
2022/08/06 09:22:20;;;;;;;2.80;1.20;;;37.90;1.00;;;;;;5076939;28;20186;-76
2022/08/06 09:24:46;;;;;;;3.83;1.40;;;38.40;1.00;;;;;;5088869;28;20655;-76
2022/08/06 09:27:17;;;;;;;3.00;1.20;;;38.30;1.00;;;;;;5087902;28;20199;-76
2022/08/06 09:29:57;;;;;;;2.78;1.60;;;38.70;1.00;;;;;;5082990;28;20498;-75
2022/08/06 09:32:58;;;;;;;3.35;1.10;;;38.80;1.00;;;;;;5080967;28;20230;-75
2022/08/06 09:35:29;;;;;;;2.63;1.20;;;39.00;1.00;;;;;;5077802;28;20194;-76
2022/08/06 09:38:08;;;;;;;5.07;1.20;;;38.80;1.00;;;;;;5081824;28;20653;-75
2022/08/06 09:40:33;;;;;;;1.95;1.15;;;38.70;1.00;;;;;;5084485;28;20654;-75
2022/08/06 09:42:59;;;;;;;2.60;1.27;;;39.00;1.00;;;;;;5088067;28;20209;-76
2022/08/06 09:45:25;;;;;;;3.08;1.23;;;39.10;1.00;;;;;;5088155;28;20243;-76
2022/08/06 09:48:05;;;;;;;2.72;1.60;;;38.80;1.00;;;;;;5069267;28;20187;-76
2022/08/06 09:50:40;;;;;;;4.07;1.20;;;39.20;1.00;;;;;;5070356;28;20180;-75
2022/08/06 09:53:06;;;;;;;4.40;1.30;;;40.00;1.00;;;;;;5073452;28;20199;-75
2022/08/06 09:55:32;;;;;;;3.53;1.42;;;40.10;1.00;;;;;;5070459;28;20253;-74
2022/08/06 09:57:58;;;;;;;2.65;1.23;;;40.50;1.00;;;;;;5070990;28;20483;-75
2022/08/06 10:00:32;;;;;;;4.20;1.45;;;40.70;1.00;;;;;;5070798;28;20175;-75
2022/08/06 10:02:59;;;;;;;6.32;1.30;;;41.00;1.00;;;;;;5071753;28;20277;-75
2022/08/06 10:05:26;;;;;;;2.97;1.33;;;41.30;1.00;;;;;;5071805;28;20699;-75
2022/08/06 10:08:13;;;;;;;1.80;1.10;;;41.00;1.00;;;;;;5072463;28;20199;-75
2022/08/06 10:10:47;;;;;;;2.53;1.23;;;41.10;1.00;;;;;;5070234;28;20654;-75
2022/08/06 10:13:23;;;;;;;3.83;1.30;;;41.60;1.00;;;;;;5069376;28;20207;-75
2022/08/06 10:15:50;;;;;;;3.53;1.50;;;42.00;1.00;;;;;;5072784;28;20816;-76
2022/08/06 10:18:32;;;;;;;2.85;1.40;;;41.90;1.00;;;;;;5086241;28;20183;-76
2022/08/06 10:21:17;;;;;;;3.10;1.35;;;40.90;1.00;;;;;;5087989;28;20266;-75
2022/08/06 10:23:48;;;;;;;2.42;1.20;;;40.70;1.00;;;;;;5079878;28;20642;-75
2022/08/06 10:26:18;;;;;;;2.78;1.40;;;40.60;1.00;;;;;;5070750;28;20191;-74
2022/08/06 10:28:45;;;;;;;3.85;1.40;;;40.60;1.00;;;;;;5070673;28;20168;-74
2022/08/06 10:31:13;;;;;;;2.78;1.23;;;40.90;1.00;;;;;;5080341;28;20732;-74
2022/08/06 10:33:49;;;;;;;3.67;1.40;;;41.60;1.00;;;;;;5084262;28;20211;-75
2022/08/06 10:36:18;;;;;;;3.03;1.20;;;41.60;1.00;;;;;;5081480;28;20288;-75
2022/08/06 10:38:50;;;;;;;2.70;1.30;;;41.60;1.00;;;;;;5080452;28;20674;-75
2022/08/06 10:41:17;;;;;;;4.03;1.58;;;41.00;1.00;;;;;;5080560;28;20199;-75
2022/08/06 10:43:42;;;;;;;2.45;1.30;;;40.70;1.00;;;;;;5073584;28;20171;-74
2022/08/06 10:46:17;;;;;;;2.88;1.30;;;41.00;1.00;;;;;;5077754;28;20182;-73
2022/08/06 10:48:47;;;;;;;4.78;1.95;;;41.20;1.00;;;;;;5076894;28;20538;-74
2022/08/06 10:51:13;;;;;;;3.33;1.30;;;41.50;1.00;;;;;;5077045;28;20202;-74
2022/08/06 10:53:44;;;;;;;2.70;1.20;;;41.00;1.00;;;;;;5078043;28;20175;-73
2022/08/06 10:56:15;;;;;;;2.20;1.30;;;41.40;1.00;;;;;;5074070;28;20195;-75
2022/08/06 10:58:41;;;;;;;2.65;1.35;;;41.60;1.00;;;;;;5078634;28;22176;-75
2022/08/06 11:01:33;;;;;;;2.90;1.10;;;42.10;1.00;;;;;;5080125;28;20244;-74
2022/08/06 11:04:28;;;;;;;2.13;1.30;;;42.80;1.00;;;;;;5081609;28;20182;-74
2022/08/06 11:07:25;;;;;;;3.70;1.40;;;41.50;1.00;;;;;;5073503;28;20179;-74
2022/08/06 11:10:22;;;;;;;4.25;1.40;;;40.90;1.00;;;;;;5074022;28;20182;-74
2022/08/06 11:13:18;;;;;;;2.63;1.10;;;41.60;1.00;;;;;;5081585;28;20198;-74
2022/08/06 11:15:44;;;;;;;3.55;1.50;;;41.00;1.00;;;;;;5077980;28;20226;-76
2022/08/06 11:18:11;;;;;;;2.25;1.17;;;40.80;1.00;;;;;;5081041;28;20209;-74
2022/08/06 11:20:44;;;;;;;2.30;1.30;;;41.50;1.00;;;;;;5078670;28;20178;-74
2022/08/06 11:23:13;;;;;;;3.15;1.30;;;41.80;1.00;;;;;;5081141;28;20281;-74
2022/08/06 11:25:47;;;;;;;3.58;1.50;;;42.80;1.00;;;;;;5091061;28;20256;-74
2022/08/06 11:28:14;;;;;;;7.85;1.40;;;43.40;1.00;;;;;;5091250;28;20186;-74
2022/08/06 11:30:42;;;;;;;3.00;1.20;;;42.60;1.00;;;;;;5098704;28;20261;-74
2022/08/06 11:33:09;;;;;;;3.08;1.60;;;42.50;1.00;;;;;;5100240;28;20201;-74
2022/08/06 11:35:35;;;;;;;2.85;1.60;;;42.50;1.00;;;;;;5110743;28;20178;-74
2022/08/06 11:38:09;;;;;;;2.47;1.38;;;43.00;1.00;;;;;;5115106;28;20169;-74
2022/08/06 11:40:56;;;;;;;2.42;1.20;;;43.50;1.00;;;;;;5114137;28;20232;-74
2022/08/06 11:43:40;;;;;;;3.65;1.20;;;43.00;1.00;;;;;;5088652;28;20175;-74
2022/08/06 11:46:24;;;;;;;2.67;1.60;;;42.60;1.00;;;;;;5073280;28;20262;-74
2022/08/06 11:48:58;;;;;;;3.45;1.70;;;43.20;1.00;;;;;;5092623;28;20167;-74
2022/08/06 11:51:51;;;;;;;3.03;1.38;;;43.70;1.00;;;;;;5093187;28;20185;-74
2022/08/06 11:54:24;;;;;;;2.42;1.80;;;44.10;1.00;;;;;;5093572;28;20168;-75
2022/08/06 11:57:10;;;;;;;3.10;1.73;;;44.20;1.00;;;;;;5087675;28;20224;-74
2022/08/06 11:59:49;;;;;;;3.08;1.63;;;44.30;1.00;;;;;;5089026;28;20252;-74
2022/08/06 12:02:36;;;;;;;4.03;2.55;;;44.70;1.00;;;;;;5084035;28;20200;-75
2022/08/06 12:05:02;;;;;;;2.45;1.30;;;44.80;1.00;;;;;;5075513;28;20176;-75
2022/08/06 12:07:30;;;;;;;2.20;1.17;;;45.00;1.00;;;;;;5074066;28;20574;-74
2022/08/06 12:10:04;;;;;;;2.10;1.20;;;45.00;1.00;;;;;;5072799;28;20176;-74
2022/08/06 12:12:30;;;;;;;2.83;1.30;;;44.80;1.00;;;;;;5077188;28;20199;-74
2022/08/06 12:14:58;;;;;;;2.40;1.55;;;44.90;1.00;;;;;;5090322;28;20538;-74
2022/08/06 12:17:25;;;;;;;3.22;1.67;;;44.90;1.00;;;;;;5072613;28;20745;-74
2022/08/06 12:19:54;;;;;;;7.97;1.60;;;45.10;1.00;;;;;;5078482;28;20171;-74
2022/08/06 12:22:22;;;;;;;1.90;1.20;;;45.30;1.00;;;;;;5074890;28;20570;-74
2022/08/06 12:24:54;;;;;;;3.70;1.90;;;45.00;1.00;;;;;;5072428;28;20248;-74
2022/08/06 12:27:20;;;;;;;2.60;1.10;;;44.80;1.00;;;;;;5090618;28;20211;-74
2022/08/06 12:29:46;;;;;;;4.68;1.48;;;44.30;1.00;;;;;;5075509;28;20183;-75
2022/08/06 12:32:32;;;;;;;3.33;1.48;;;44.60;1.00;;;;;;5085985;28;20191;-74
2022/08/06 12:35:00;;;;;;;3.35;1.33;;;45.00;1.00;;;;;;5100133;28;20186;-74
2022/08/06 12:37:41;;;;;;;2.85;1.25;;;45.40;1.00;;;;;;5089686;28;20189;-74
2022/08/06 12:40:28;;;;;;;2.50;1.35;;;45.90;1.00;;;;;;5090629;28;20656;-74
2022/08/06 12:43:01;;;;;;;2.78;1.40;;;45.80;1.00;;;;;;5111866;28;20186;-74
2022/08/06 12:45:28;;;;;;;2.25;1.10;;;45.50;1.00;;;;;;5083703;28;20259;-74
2022/08/06 12:48:07;;;;;;;2.20;1.15;;;45.70;1.00;;;;;;5072310;28;20168;-75
2022/08/06 12:50:39;;;;;;;3.67;1.20;;;46.20;1.00;;;;;;5086451;28;20175;-74
2022/08/06 12:53:09;;;;;;;1.95;1.10;;;45.90;1.00;;;;;;5074856;28;20362;-74
2022/08/06 12:55:44;;;;;;;2.72;1.25;;;45.60;1.00;;;;;;5083120;28;20195;-75
2022/08/06 12:58:12;;;;;;;3.50;1.50;;;45.40;1.00;;;;;;5083849;28;20167;-74
2022/08/06 13:00:39;;;;;;;7.05;1.20;;;45.30;1.00;;;;;;5082533;28;20228;-75
2022/08/06 13:03:06;;;;;;;4.72;1.30;;;45.40;1.00;;;;;;5089188;28;20205;-74
2022/08/06 13:05:33;;;;;;;3.30;1.20;;;45.10;1.00;;;;;;5080789;28;20202;-75
2022/08/06 13:08:00;;;;;;;3.40;1.30;;;44.80;1.00;;;;;;5073020;28;20666;-74
2022/08/06 13:10:26;;;;;;;10.98;1.63;;;45.40;1.00;;;;;;5071661;28;20411;-74
2022/08/06 13:12:57;;;;;;;2.35;1.00;;;45.80;1.00;;;;;;5081687;28;20195;-75
2022/08/06 13:15:24;;;;;;;2.38;1.30;;;46.40;1.00;;;;;;5091895;28;20215;-74
2022/08/06 13:18:13;;;;;;;4.00;1.27;;;46.70;1.00;;;;;;5091808;28;20254;-74
2022/08/06 13:20:40;;;;;;;2.95;1.30;;;46.40;1.00;;;;;;5076139;28;20475;-74